Time;durP1;ratioP1;P1;durP2;ratioP2;P2;SDS_P1;SDS_P2;PMS_P1;PMS_P2;Temp;Humidity;BMP_temperature;BMP_pressure;BME280_temperature;BME280_humidity;BME280_pressure;Samples;Min_cycle;Max_cycle;Signal;HPM_P1;HPM_P2
2022/07/11 00:00:36;;;;;;;4.10;1.83;;;15.80;99.90;;;;;;2112949;28;20034;-69
2022/07/11 00:01:37;;;;;;;3.35;2.10;;;15.80;99.90;;;;;;2114008;28;20059;-68
2022/07/11 00:02:39;;;;;;;4.80;1.85;;;15.80;99.90;;;;;;2110883;28;20032;-70
2022/07/11 00:03:39;;;;;;;5.13;2.00;;;15.80;99.90;;;;;;2105200;28;20051;-69
2022/07/11 00:04:42;;;;;;;3.22;1.90;;;15.90;99.90;;;;;;2104947;28;20020;-68
2022/07/11 00:05:43;;;;;;;3.83;1.88;;;15.80;99.90;;;;;;2105204;28;20156;-69
2022/07/11 00:06:43;;;;;;;5.40;2.03;;;15.90;99.90;;;;;;2104759;28;20028;-69
2022/07/11 00:07:44;;;;;;;3.88;2.05;;;15.80;99.90;;;;;;2105288;28;20043;-68
2022/07/11 00:08:45;;;;;;;3.97;2.00;;;15.90;99.90;;;;;;2104781;28;20032;-69
2022/07/11 00:09:46;;;;;;;3.65;2.30;;;15.80;99.90;;;;;;2104672;28;20023;-66
2022/07/11 00:10:46;;;;;;;4.43;2.20;;;15.80;99.90;;;;;;2103450;28;20032;-68
2022/07/11 00:11:48;;;;;;;6.18;2.30;;;15.80;99.90;;;;;;2095396;28;20693;-68
2022/07/11 00:12:48;;;;;;;3.60;2.08;;;15.70;99.90;;;;;;2103915;28;20027;-74
2022/07/11 00:13:50;;;;;;;3.75;2.00;;;15.70;99.90;;;;;;2104471;28;20047;-69
2022/07/11 00:14:50;;;;;;;4.45;2.08;;;15.70;99.90;;;;;;2104557;28;20024;-68
2022/07/11 00:15:51;;;;;;;4.40;2.08;;;15.60;99.90;;;;;;2104765;28;20052;-70
2022/07/11 00:16:52;;;;;;;4.72;2.00;;;15.70;99.90;;;;;;2104419;28;20016;-68
2022/07/11 00:17:53;;;;;;;3.90;2.25;;;15.60;99.90;;;;;;2105462;28;20375;-67
2022/07/11 00:18:54;;;;;;;4.53;2.30;;;15.60;99.90;;;;;;2105154;28;20041;-68
2022/07/11 00:19:54;;;;;;;5.47;2.25;;;15.60;99.90;;;;;;2104900;28;20107;-68
2022/07/11 00:20:55;;;;;;;4.57;2.00;;;15.60;99.90;;;;;;2105406;28;20054;-68
2022/07/11 00:21:56;;;;;;;3.83;1.98;;;15.50;99.90;;;;;;2105003;28;20466;-68
2022/07/11 00:22:57;;;;;;;3.40;2.03;;;15.50;99.90;;;;;;2104816;28;20020;-69
2022/07/11 00:23:57;;;;;;;3.78;2.17;;;15.50;99.90;;;;;;2104276;28;20536;-69
2022/07/11 00:24:58;;;;;;;3.55;2.00;;;15.50;99.90;;;;;;2104636;28;20039;-69
2022/07/11 00:25:59;;;;;;;6.53;2.15;;;15.40;99.90;;;;;;2104820;28;20052;-69
2022/07/11 00:26:59;;;;;;;6.07;2.13;;;15.40;99.90;;;;;;2104862;28;20036;-69
2022/07/11 00:28:00;;;;;;;6.72;2.10;;;15.40;99.90;;;;;;2104233;28;20035;-66
2022/07/11 00:29:01;;;;;;;4.22;2.03;;;15.30;99.90;;;;;;2095975;28;20579;-69
2022/07/11 00:30:01;;;;;;;5.97;2.20;;;15.30;99.90;;;;;;2104239;28;20139;-68
2022/07/11 00:31:02;;;;;;;5.65;2.17;;;15.30;99.90;;;;;;2104915;28;20358;-71
2022/07/11 00:32:03;;;;;;;3.60;2.05;;;15.30;99.90;;;;;;2105176;28;20032;-68
2022/07/11 00:33:04;;;;;;;4.13;2.00;;;15.30;99.90;;;;;;2105035;28;20024;-69
2022/07/11 00:34:07;;;;;;;4.88;2.00;;;15.30;99.90;;;;;;2104924;28;20023;-68
2022/07/11 00:35:08;;;;;;;4.40;2.40;;;15.30;99.90;;;;;;2104840;28;20039;-67
2022/07/11 00:36:09;;;;;;;5.93;2.20;;;15.30;99.90;;;;;;2104726;28;20024;-68
2022/07/11 00:37:09;;;;;;;4.88;2.10;;;15.30;99.90;;;;;;2104487;28;20020;-69
2022/07/11 00:38:10;;;;;;;3.10;1.83;;;15.30;99.90;;;;;;2104688;28;20101;-68
2022/07/11 00:39:11;;;;;;;3.88;2.05;;;15.30;99.90;;;;;;2104990;28;20034;-67
2022/07/11 00:40:12;;;;;;;8.00;2.40;;;15.30;99.90;;;;;;2105118;28;20028;-67
2022/07/11 00:41:13;;;;;;;4.60;2.72;;;15.40;99.90;;;;;;2105413;28;20016;-68
2022/07/11 00:42:17;;;;;;;3.47;2.10;;;15.40;99.90;;;;;;2104776;28;20457;-67
2022/07/11 00:43:19;;;;;;;3.13;1.90;;;15.40;99.90;;;;;;2104159;28;20026;-68
2022/07/11 00:44:19;;;;;;;3.17;2.08;;;15.40;99.90;;;;;;2112338;28;20027;-69
2022/07/11 00:45:20;;;;;;;4.80;1.70;;;15.40;99.90;;;;;;2112474;28;20020;-69
2022/07/11 00:46:21;;;;;;;5.43;2.17;;;15.40;99.90;;;;;;2104649;28;20027;-68
2022/07/11 00:47:22;;;;;;;4.57;2.05;;;15.50;99.90;;;;;;2104445;28;20024;-67
2022/07/11 00:48:23;;;;;;;4.35;2.45;;;15.40;99.90;;;;;;2104780;28;20107;-68
2022/07/11 00:49:23;;;;;;;3.67;2.10;;;15.40;99.90;;;;;;2096287;28;20103;-68
2022/07/11 00:50:25;;;;;;;4.68;1.83;;;15.40;99.90;;;;;;2096187;28;20060;-67
2022/07/11 00:51:27;;;;;;;4.25;2.40;;;15.40;99.90;;;;;;2096232;28;20556;-69
2022/07/11 00:52:28;;;;;;;5.60;2.28;;;15.40;99.90;;;;;;2095539;28;20115;-68
2022/07/11 00:53:35;;;;;;;4.85;2.10;;;15.40;99.90;;;;;;2104235;28;20044;-68
2022/07/11 00:54:36;;;;;;;4.53;2.17;;;15.30;99.90;;;;;;2104710;28;20480;-70
2022/07/11 00:55:36;;;;;;;5.30;2.17;;;15.30;99.90;;;;;;2103867;28;20505;-68
2022/07/11 00:56:38;;;;;;;5.03;2.30;;;15.30;99.90;;;;;;2103948;28;20032;-67
2022/07/11 00:57:39;;;;;;;5.45;2.28;;;15.30;99.90;;;;;;2104628;28;20743;-68
2022/07/11 00:58:40;;;;;;;2.95;2.13;;;15.20;99.90;;;;;;2104834;28;20065;-68
2022/07/11 00:59:41;;;;;;;6.30;2.50;;;15.20;99.90;;;;;;2105119;28;20766;-68
2022/07/11 01:00:42;;;;;;;6.57;2.53;;;15.20;99.90;;;;;;2104566;28;20046;-68
2022/07/11 01:01:43;;;;;;;3.92;2.45;;;15.20;99.90;;;;;;2104386;28;20146;-70
2022/07/11 01:02:43;;;;;;;4.50;2.47;;;15.20;99.90;;;;;;2104513;28;20644;-69
2022/07/11 01:03:45;;;;;;;3.58;2.40;;;15.10;99.90;;;;;;2104444;28;20122;-70
2022/07/11 01:04:46;;;;;;;6.50;2.10;;;15.10;99.90;;;;;;2103700;28;20024;-68
2022/07/11 01:05:46;;;;;;;4.90;2.10;;;15.10;99.90;;;;;;2104242;28;20039;-68
2022/07/11 01:06:47;;;;;;;4.38;1.90;;;15.10;99.90;;;;;;2103976;28;20028;-69
2022/07/11 01:07:48;;;;;;;5.53;2.22;;;15.00;99.90;;;;;;2103866;28;20021;-69
2022/07/11 01:08:49;;;;;;;3.67;2.10;;;15.00;99.90;;;;;;2104648;28;20678;-68
2022/07/11 01:09:50;;;;;;;4.93;2.28;;;15.00;99.90;;;;;;2104851;28;20426;-69
2022/07/11 01:10:51;;;;;;;5.47;2.25;;;15.00;99.90;;;;;;2104358;28;20035;-68
2022/07/11 01:11:52;;;;;;;5.47;2.30;;;15.00;99.90;;;;;;2104559;28;20032;-69
2022/07/11 01:12:52;;;;;;;4.22;2.20;;;14.90;99.90;;;;;;2104604;28;20048;-70
2022/07/11 01:13:53;;;;;;;6.38;2.22;;;14.90;99.90;;;;;;2104904;28;20489;-68
2022/07/11 01:14:56;;;;;;;3.88;1.90;;;14.90;99.90;;;;;;2104788;28;20118;-71
2022/07/11 01:16:07;;;;;;;4.85;2.00;;;14.90;99.90;;;;;;2104071;28;20028;-69
2022/07/11 01:17:08;;;;;;;4.30;2.15;;;14.90;99.90;;;;;;2103940;28;20016;-70
2022/07/11 01:18:08;;;;;;;3.28;2.00;;;14.90;99.90;;;;;;2104471;28;20020;-68
2022/07/11 01:19:09;;;;;;;3.25;2.00;;;14.90;99.90;;;;;;2104440;28;20399;-69
2022/07/11 01:20:11;;;;;;;4.47;2.30;;;14.90;99.90;;;;;;2104567;28;20040;-69
2022/07/11 01:21:51;;;;;;;5.93;2.28;;;14.90;99.90;;;;;;2104475;28;20425;-68
2022/07/11 01:22:56;;;;;;;3.58;2.30;;;14.80;99.90;;;;;;2086615;28;20394;-69
2022/07/11 01:23:59;;;;;;;4.63;2.00;;;14.90;99.90;;;;;;2097817;28;20036;-68
2022/07/11 01:24:59;;;;;;;3.42;2.10;;;14.80;99.90;;;;;;2104254;28;20055;-69
2022/07/11 01:26:00;;;;;;;4.50;2.30;;;14.80;99.90;;;;;;2104847;28;20031;-69
2022/07/11 01:27:01;;;;;;;3.75;2.15;;;14.80;99.90;;;;;;2104067;28;20498;-69
2022/07/11 01:28:06;;;;;;;3.28;2.00;;;14.70;99.90;;;;;;2103698;28;20073;-68
2022/07/11 01:29:12;;;;;;;3.53;1.73;;;14.80;99.90;;;;;;2104552;28;20028;-68
2022/07/11 01:30:13;;;;;;;5.32;2.15;;;14.70;99.90;;;;;;2105090;28;20119;-67
2022/07/11 01:31:14;;;;;;;4.38;1.98;;;14.70;99.90;;;;;;2103968;28;20089;-70
2022/07/11 01:32:18;;;;;;;4.88;2.25;;;14.70;99.90;;;;;;2103951;28;20507;-68
2022/07/11 01:33:18;;;;;;;4.30;2.05;;;14.60;99.90;;;;;;2103910;28;20063;-69
2022/07/11 01:34:19;;;;;;;3.72;1.95;;;14.60;99.90;;;;;;2104341;28;20070;-68
2022/07/11 01:35:20;;;;;;;5.10;2.35;;;14.60;99.90;;;;;;2105069;28;20035;-71
2022/07/11 01:36:21;;;;;;;3.60;2.00;;;14.60;99.90;;;;;;2104181;28;20039;-69
2022/07/11 01:37:22;;;;;;;3.03;2.08;;;14.60;99.90;;;;;;2104203;28;20148;-68
2022/07/11 01:38:22;;;;;;;3.13;2.25;;;14.60;99.90;;;;;;2104238;28;20032;-69
2022/07/11 01:39:23;;;;;;;3.72;2.00;;;14.60;99.90;;;;;;2104017;28;20038;-68
2022/07/11 01:40:24;;;;;;;3.05;1.88;;;14.60;99.90;;;;;;2104002;28;20043;-68
2022/07/11 01:41:24;;;;;;;5.07;2.20;;;14.60;99.90;;;;;;2104672;28;20020;-69
2022/07/11 01:42:27;;;;;;;6.20;2.13;;;14.60;99.90;;;;;;2105485;28;20039;-68
2022/07/11 01:43:27;;;;;;;3.40;2.22;;;14.50;99.90;;;;;;2105716;28;20449;-70
2022/07/11 01:44:28;;;;;;;3.67;2.08;;;14.50;99.90;;;;;;2106077;28;20032;-69
2022/07/11 01:45:29;;;;;;;6.13;2.15;;;14.50;99.90;;;;;;2105101;28;20177;-68
2022/07/11 01:46:29;;;;;;;3.28;2.00;;;14.50;99.90;;;;;;2104477;28;20074;-69
2022/07/11 01:47:30;;;;;;;5.50;2.30;;;14.50;99.90;;;;;;2104899;28;20095;-69
2022/07/11 01:48:31;;;;;;;4.40;2.10;;;14.50;99.90;;;;;;2104285;28;20028;-70
2022/07/11 01:49:32;;;;;;;6.50;2.60;;;14.50;99.90;;;;;;2104541;28;20032;-69
2022/07/11 01:50:32;;;;;;;5.50;2.30;;;14.50;99.90;;;;;;2104844;28;20043;-69
2022/07/11 01:51:34;;;;;;;4.75;2.25;;;14.50;99.90;;;;;;2104058;28;20036;-69
2022/07/11 01:52:35;;;;;;;4.38;2.15;;;14.50;99.90;;;;;;2095723;28;20029;-70
2022/07/11 01:53:36;;;;;;;4.25;2.20;;;14.50;99.90;;;;;;2103902;28;20127;-69
2022/07/11 01:54:36;;;;;;;4.35;2.50;;;14.50;99.90;;;;;;2104754;28;20040;-67
2022/07/11 01:55:37;;;;;;;3.53;2.30;;;14.50;99.90;;;;;;2104494;28;20048;-70
2022/07/11 01:56:37;;;;;;;3.63;2.10;;;14.50;99.90;;;;;;2104689;28;20079;-69
2022/07/11 01:57:38;;;;;;;4.30;2.20;;;14.50;99.90;;;;;;2103494;28;20354;-70
2022/07/11 01:58:39;;;;;;;3.17;1.95;;;14.50;99.90;;;;;;2103677;28;20077;-70
2022/07/11 01:59:40;;;;;;;3.47;1.95;;;14.50;99.90;;;;;;2104742;28;20028;-68
2022/07/11 02:00:40;;;;;;;4.40;2.20;;;14.50;99.90;;;;;;2095439;28;20059;-70
2022/07/11 02:01:41;;;;;;;3.13;2.08;;;14.50;99.90;;;;;;2095385;28;20588;-70
2022/07/11 02:02:42;;;;;;;4.78;2.50;;;14.50;99.90;;;;;;2104303;28;20461;-70
2022/07/11 02:03:42;;;;;;;6.43;2.63;;;14.50;99.90;;;;;;2104211;28;20020;-69
2022/07/11 02:04:43;;;;;;;4.65;2.65;;;14.50;99.90;;;;;;2104824;28;20028;-68
2022/07/11 02:05:44;;;;;;;4.82;2.47;;;14.50;99.90;;;;;;2104875;28;20457;-70
2022/07/11 02:06:44;;;;;;;3.67;2.30;;;14.60;99.90;;;;;;2104283;28;20042;-69
2022/07/11 02:09:04;;;;;;;5.82;2.50;;;14.50;99.90;;;;;;2104221;28;20123;-70
2022/07/11 02:10:05;;;;;;;5.20;2.60;;;14.50;99.90;;;;;;2104258;28;20047;-70
2022/07/11 02:11:06;;;;;;;3.67;2.45;;;14.50;99.90;;;;;;2104361;28;20089;-68
2022/07/11 02:12:07;;;;;;;3.58;2.10;;;14.50;99.90;;;;;;2104282;28;20388;-69
2022/07/11 02:13:09;;;;;;;4.82;2.42;;;14.50;99.90;;;;;;2103762;28;20040;-70
2022/07/11 02:14:10;;;;;;;2.53;1.98;;;14.60;99.90;;;;;;2104518;28;20498;-70
2022/07/11 02:15:10;;;;;;;3.47;2.05;;;14.50;99.90;;;;;;2096781;28;20041;-69
2022/07/11 02:16:11;;;;;;;4.63;2.40;;;14.50;99.90;;;;;;2112372;28;20768;-69
2022/07/11 02:17:12;;;;;;;5.47;2.30;;;14.50;99.90;;;;;;2120934;28;20565;-69
2022/07/11 02:18:13;;;;;;;2.92;2.20;;;14.50;99.90;;;;;;2104822;28;20116;-69
2022/07/11 02:19:14;;;;;;;5.47;2.92;;;14.50;99.90;;;;;;2104315;28;20103;-70
2022/07/11 02:20:15;;;;;;;4.43;2.50;;;14.50;99.90;;;;;;2104192;28;20500;-69
2022/07/11 02:21:15;;;;;;;4.53;2.47;;;14.50;99.90;;;;;;2104441;28;20118;-69
2022/07/11 02:22:16;;;;;;;3.33;2.30;;;14.40;99.90;;;;;;2104277;28;20081;-70
2022/07/11 02:23:17;;;;;;;4.20;2.25;;;14.50;99.90;;;;;;2105805;28;20534;-70
2022/07/11 02:24:18;;;;;;;3.63;2.00;;;14.40;99.90;;;;;;2106757;28;20058;-69
2022/07/11 02:25:19;;;;;;;2.58;1.85;;;14.50;99.90;;;;;;2105559;28;20794;-69
2022/07/11 02:26:20;;;;;;;7.10;2.92;;;14.50;99.90;;;;;;2105120;28;20066;-69
2022/07/11 02:27:20;;;;;;;4.82;2.85;;;14.50;99.90;;;;;;2105042;28;20024;-70
2022/07/11 02:28:21;;;;;;;4.18;2.60;;;14.40;99.90;;;;;;2105222;28;20062;-70
2022/07/11 02:29:22;;;;;;;7.78;2.90;;;14.40;99.90;;;;;;2105957;28;20027;-69
2022/07/11 02:30:23;;;;;;;5.88;2.70;;;14.40;99.90;;;;;;2105806;28;20024;-70
2022/07/11 02:31:23;;;;;;;5.55;2.47;;;14.40;99.90;;;;;;2105755;28;20063;-70
2022/07/11 02:32:24;;;;;;;4.50;2.33;;;14.40;99.90;;;;;;2105874;28;20048;-69
2022/07/11 02:33:25;;;;;;;7.05;3.25;;;14.40;99.90;;;;;;2105187;28;20042;-70
2022/07/11 02:34:25;;;;;;;5.38;2.90;;;14.40;99.90;;;;;;2096753;28;20028;-70
2022/07/11 02:35:26;;;;;;;5.32;2.70;;;14.40;99.90;;;;;;2105026;28;20130;-69
2022/07/11 02:36:27;;;;;;;4.82;2.55;;;14.40;99.90;;;;;;2105898;28;20827;-69
2022/07/11 02:37:27;;;;;;;4.88;2.40;;;14.40;99.90;;;;;;2105529;28;20525;-69
2022/07/11 02:38:28;;;;;;;7.72;2.63;;;14.30;99.90;;;;;;2105556;28;20024;-68
2022/07/11 02:39:29;;;;;;;5.32;2.67;;;14.30;99.90;;;;;;2105611;28;20043;-68
2022/07/11 02:40:29;;;;;;;4.20;2.50;;;14.30;99.90;;;;;;2105805;28;20032;-68
2022/07/11 02:41:30;;;;;;;3.78;2.40;;;14.30;99.90;;;;;;2105526;28;20102;-68
2022/07/11 02:42:31;;;;;;;4.90;2.35;;;14.30;99.90;;;;;;2105774;28;20024;-68
2022/07/11 02:43:32;;;;;;;6.10;2.65;;;14.30;99.90;;;;;;2105644;28;20474;-68
2022/07/11 02:44:32;;;;;;;4.63;2.25;;;14.30;99.90;;;;;;2105620;28;20024;-68
2022/07/11 02:45:33;;;;;;;3.58;2.35;;;14.30;99.90;;;;;;2105575;28;20036;-68
2022/07/11 02:46:33;;;;;;;3.65;2.70;;;14.30;99.90;;;;;;2105014;28;20028;-68
2022/07/11 02:47:36;;;;;;;7.93;3.05;;;14.30;99.90;;;;;;2104716;28;20504;-68
2022/07/11 02:48:37;;;;;;;4.95;2.60;;;14.30;99.90;;;;;;2105339;28;20431;-68
2022/07/11 02:49:37;;;;;;;4.72;2.33;;;14.30;99.90;;;;;;2104889;28;20104;-68
2022/07/11 02:50:38;;;;;;;6.57;2.55;;;14.30;99.90;;;;;;2104866;28;20023;-68
2022/07/11 02:51:39;;;;;;;5.70;2.70;;;14.30;99.90;;;;;;2104735;28;20085;-68
2022/07/11 02:52:43;;;;;;;5.55;2.33;;;14.30;99.90;;;;;;2104918;28;20025;-68
2022/07/11 02:53:43;;;;;;;5.13;2.20;;;14.30;99.90;;;;;;2105486;28;20030;-68
2022/07/11 02:54:44;;;;;;;5.57;2.58;;;14.30;99.90;;;;;;2105329;28;20472;-68
2022/07/11 02:55:45;;;;;;;4.85;2.33;;;14.30;99.90;;;;;;2105541;28;20036;-68
2022/07/11 02:56:46;;;;;;;5.60;2.42;;;14.30;99.90;;;;;;2105094;28;20032;-68
2022/07/11 02:57:46;;;;;;;5.97;2.38;;;14.30;99.90;;;;;;2105388;28;20097;-69
2022/07/11 02:58:47;;;;;;;4.95;2.50;;;14.30;99.90;;;;;;2105449;28;20031;-68
2022/07/11 02:59:48;;;;;;;6.85;2.50;;;14.30;99.90;;;;;;2105985;28;20493;-68
2022/07/11 03:00:48;;;;;;;5.07;2.47;;;14.30;99.90;;;;;;2106311;28;20134;-68
2022/07/11 03:01:49;;;;;;;8.57;2.35;;;14.30;99.90;;;;;;2106375;28;20028;-68
2022/07/11 03:02:50;;;;;;;6.50;2.30;;;14.30;99.90;;;;;;2106784;28;20031;-68
2022/07/11 03:03:51;;;;;;;5.75;2.20;;;14.30;99.90;;;;;;2107173;28;20037;-68
2022/07/11 03:04:51;;;;;;;5.78;2.45;;;14.30;99.90;;;;;;2105818;28;20035;-68
2022/07/11 03:05:52;;;;;;;4.80;2.30;;;14.30;99.90;;;;;;2105741;28;20027;-69
2022/07/11 03:06:54;;;;;;;5.65;2.20;;;14.30;99.90;;;;;;2105474;28;20271;-69
2022/07/11 03:07:54;;;;;;;7.80;2.60;;;14.30;99.90;;;;;;2105506;28;20489;-69
2022/07/11 03:08:55;;;;;;;5.63;2.28;;;14.30;99.90;;;;;;2105291;28;20036;-68
2022/07/11 03:09:56;;;;;;;6.75;2.47;;;14.30;99.90;;;;;;2104810;28;20028;-68
2022/07/11 03:10:57;;;;;;;5.10;2.00;;;14.30;99.90;;;;;;2104906;28;20486;-69
2022/07/11 03:11:57;;;;;;;5.20;2.50;;;14.20;99.90;;;;;;2104894;28;20028;-69
2022/07/11 03:12:58;;;;;;;3.72;2.10;;;14.20;99.90;;;;;;2104804;28;20028;-69
2022/07/11 03:14:00;;;;;;;4.00;2.33;;;14.20;99.90;;;;;;2104939;28;20516;-70
2022/07/11 03:15:01;;;;;;;4.80;2.30;;;14.20;99.90;;;;;;2096353;28;20055;-70
2022/07/11 03:16:02;;;;;;;5.43;2.20;;;14.30;99.90;;;;;;2104732;28;20017;-70
2022/07/11 03:17:02;;;;;;;5.03;2.30;;;14.20;99.90;;;;;;2105254;28;20051;-70
2022/07/11 03:18:03;;;;;;;8.75;2.50;;;14.20;99.90;;;;;;2105366;28;20520;-69
2022/07/11 03:19:04;;;;;;;5.80;2.30;;;14.20;99.90;;;;;;2105656;28;20023;-69
2022/07/11 03:20:05;;;;;;;5.68;2.58;;;14.20;99.90;;;;;;2105556;28;20032;-69
2022/07/11 03:21:06;;;;;;;5.75;2.15;;;14.20;99.90;;;;;;2105858;28;20629;-69
2022/07/11 03:22:07;;;;;;;6.90;2.28;;;14.20;99.90;;;;;;2105948;28;20055;-68
2022/07/11 03:23:08;;;;;;;6.43;2.78;;;14.20;99.90;;;;;;2106061;28;20017;-69
2022/07/11 03:24:09;;;;;;;4.55;2.47;;;14.20;99.90;;;;;;2106261;28;20028;-67
2022/07/11 03:25:09;;;;;;;4.28;2.40;;;14.20;99.90;;;;;;2105887;28;20024;-67
2022/07/11 03:26:11;;;;;;;7.05;2.40;;;14.20;99.90;;;;;;2105507;28;20023;-69
2022/07/11 03:27:11;;;;;;;4.90;2.42;;;14.20;99.90;;;;;;2105122;28;20482;-69
2022/07/11 03:28:12;;;;;;;5.80;2.58;;;14.20;99.90;;;;;;2105514;28;20024;-69
2022/07/11 03:29:13;;;;;;;3.05;2.05;;;14.20;99.90;;;;;;2105595;28;20044;-68
2022/07/11 03:30:14;;;;;;;3.63;2.20;;;14.20;99.90;;;;;;2105229;28;20016;-69
2022/07/11 03:31:15;;;;;;;4.97;2.03;;;14.30;99.90;;;;;;2105286;28;20024;-69
2022/07/11 03:32:20;;;;;;;3.90;2.00;;;14.20;99.90;;;;;;2104593;28;20030;-68
2022/07/11 03:33:21;;;;;;;4.68;2.28;;;14.20;99.90;;;;;;2104556;28;20035;-68
2022/07/11 03:34:22;;;;;;;7.20;2.47;;;14.20;99.90;;;;;;2103521;28;20464;-69
2022/07/11 03:35:41;;;;;;;3.40;2.13;;;14.20;99.90;;;;;;2104517;28;20081;-69
2022/07/11 03:36:41;;;;;;;5.70;2.42;;;14.20;99.90;;;;;;2105105;28;20510;-69
2022/07/11 03:37:42;;;;;;;4.43;2.17;;;14.20;99.90;;;;;;2105219;28;20119;-68
2022/07/11 03:38:43;;;;;;;5.63;2.28;;;14.20;99.90;;;;;;2105140;28;20020;-69
2022/07/11 03:39:44;;;;;;;5.50;2.10;;;14.20;99.90;;;;;;2105259;28;20016;-68
2022/07/11 03:40:45;;;;;;;5.07;2.38;;;14.20;99.90;;;;;;2105197;28;20743;-68
2022/07/11 03:41:45;;;;;;;6.13;2.00;;;14.20;99.90;;;;;;2104921;28;20112;-69
2022/07/11 03:42:46;;;;;;;4.05;2.10;;;14.20;99.90;;;;;;2105288;28;20114;-69
2022/07/11 03:43:47;;;;;;;5.53;2.10;;;14.20;99.90;;;;;;2105068;28;20039;-71
2022/07/11 03:44:47;;;;;;;3.05;1.95;;;14.30;99.90;;;;;;2105349;28;20039;-71
2022/07/11 03:45:48;;;;;;;3.92;2.13;;;14.30;99.90;;;;;;2105062;28;20012;-71
2022/07/11 03:46:49;;;;;;;5.72;2.35;;;14.30;99.90;;;;;;2104811;28;20661;-71
2022/07/11 03:47:50;;;;;;;5.57;2.33;;;14.30;99.90;;;;;;2104337;28;20028;-71
2022/07/11 03:48:51;;;;;;;5.90;2.33;;;14.30;99.90;;;;;;2104464;28;20017;-71
2022/07/11 03:49:51;;;;;;;5.40;2.30;;;14.30;99.90;;;;;;2104608;28;20453;-71
2022/07/11 03:50:52;;;;;;;4.10;2.30;;;14.20;99.90;;;;;;2104323;28;20036;-71
2022/07/11 03:51:53;;;;;;;5.80;2.55;;;14.20;99.90;;;;;;2104381;28;20085;-70
2022/07/11 03:52:54;;;;;;;3.40;2.03;;;14.20;99.90;;;;;;2104420;28;20119;-71
2022/07/11 03:53:55;;;;;;;7.05;2.25;;;14.20;99.90;;;;;;2105063;28;20039;-70
2022/07/11 03:54:55;;;;;;;5.38;2.35;;;14.20;99.90;;;;;;2105154;28;20111;-71
2022/07/11 03:55:56;;;;;;;5.22;2.45;;;14.30;99.90;;;;;;2105089;28;20024;-70
2022/07/11 03:56:57;;;;;;;4.90;2.40;;;14.30;99.90;;;;;;2095635;28;20051;-70
2022/07/11 03:57:57;;;;;;;4.50;2.00;;;14.20;99.90;;;;;;2096183;28;20118;-70
2022/07/11 03:58:58;;;;;;;6.68;2.35;;;14.20;99.90;;;;;;2104706;28;20870;-71
2022/07/11 03:59:59;;;;;;;7.35;2.53;;;14.20;99.90;;;;;;2104369;28;20103;-71
2022/07/11 04:01:00;;;;;;;4.80;2.38;;;14.20;99.90;;;;;;2104449;28;20054;-71
2022/07/11 04:02:00;;;;;;;7.72;2.40;;;14.20;99.90;;;;;;2104889;28;20839;-71
2022/07/11 04:03:01;;;;;;;6.38;2.13;;;14.20;99.90;;;;;;2104391;28;20501;-71
2022/07/11 04:04:02;;;;;;;5.32;2.10;;;14.20;99.90;;;;;;2104320;28;20027;-70
2022/07/11 04:05:03;;;;;;;6.93;2.22;;;14.20;99.90;;;;;;2104444;28;20736;-70
2022/07/11 04:06:04;;;;;;;5.78;2.15;;;14.10;99.90;;;;;;2104942;28;20035;-69
2022/07/11 04:07:05;;;;;;;7.85;2.40;;;14.10;99.90;;;;;;2104887;28;20027;-69
2022/07/11 04:08:05;;;;;;;5.70;2.38;;;14.10;99.90;;;;;;2104866;28;20111;-69
2022/07/11 04:09:06;;;;;;;4.68;2.13;;;14.10;99.90;;;;;;2104876;28;20027;-70
2022/07/11 04:10:07;;;;;;;6.13;2.30;;;14.10;99.90;;;;;;2104928;28;20077;-69
2022/07/11 04:11:08;;;;;;;4.40;2.03;;;14.10;99.90;;;;;;2104140;28;20024;-69
2022/07/11 04:12:09;;;;;;;4.97;2.03;;;14.20;99.90;;;;;;2104341;28;20104;-69
2022/07/11 04:13:09;;;;;;;5.25;2.40;;;14.40;99.90;;;;;;2104849;28;20160;-69
2022/07/11 04:14:10;;;;;;;5.32;2.17;;;14.40;99.90;;;;;;2104816;28;20026;-69
2022/07/11 04:15:11;;;;;;;6.60;2.08;;;14.60;99.90;;;;;;2104289;28;20095;-69
2022/07/11 04:16:12;;;;;;;4.20;2.00;;;14.80;99.90;;;;;;2095909;28;20027;-70
2022/07/11 04:17:13;;;;;;;6.22;1.98;;;15.10;99.90;;;;;;2112363;28;20833;-70
2022/07/11 04:18:14;;;;;;;7.63;2.30;;;15.40;99.90;;;;;;2112524;28;20513;-70
2022/07/11 04:19:14;;;;;;;4.22;1.88;;;15.70;99.90;;;;;;2104362;28;20032;-69
2022/07/11 04:20:15;;;;;;;6.53;1.90;;;15.90;99.90;;;;;;2104046;28;20031;-70
2022/07/11 04:21:16;;;;;;;6.43;1.92;;;16.10;99.90;;;;;;2104110;28;20099;-69
2022/07/11 04:22:17;;;;;;;6.50;1.98;;;16.30;99.90;;;;;;2104304;28;20470;-69
2022/07/11 04:23:18;;;;;;;5.57;1.75;;;16.40;99.90;;;;;;2104932;28;20035;-69
2022/07/11 04:24:18;;;;;;;4.40;2.00;;;16.50;99.90;;;;;;2104939;28;20467;-70
2022/07/11 04:25:19;;;;;;;3.67;1.75;;;16.60;99.90;;;;;;2104727;28;20112;-68
2022/07/11 04:26:20;;;;;;;5.82;1.92;;;16.80;99.90;;;;;;2104915;28;20095;-67
2022/07/11 04:27:20;;;;;;;5.45;2.10;;;17.20;99.90;;;;;;2104660;28;20027;-68
2022/07/11 04:28:21;;;;;;;5.75;1.88;;;17.30;99.90;;;;;;2104690;28;20435;-68
2022/07/11 04:29:23;;;;;;;3.40;1.88;;;17.10;99.90;;;;;;2104831;28;20118;-67
2022/07/11 04:30:23;;;;;;;7.20;1.70;;;17.20;99.90;;;;;;2104805;28;20028;-67
2022/07/11 04:31:25;;;;;;;5.75;1.90;;;17.50;99.90;;;;;;2105033;28;20024;-68
2022/07/11 04:32:26;;;;;;;7.93;1.98;;;17.50;99.90;;;;;;2096151;28;20040;-68
2022/07/11 04:33:27;;;;;;;7.80;2.13;;;17.40;99.90;;;;;;2096395;28;20025;-67
2022/07/11 04:34:28;;;;;;;10.65;2.30;;;17.20;99.90;;;;;;2105415;28;20478;-68
2022/07/11 04:35:31;;;;;;;5.43;1.80;;;17.10;99.90;;;;;;2104976;28;20034;-69
2022/07/11 04:36:32;;;;;;;4.72;1.80;;;17.10;99.90;;;;;;2105893;28;20367;-68
2022/07/11 04:37:33;;;;;;;6.32;2.17;;;17.10;99.90;;;;;;2106753;28;20043;-67
2022/07/11 04:38:34;;;;;;;5.93;1.92;;;17.20;99.90;;;;;;2106856;28;20489;-68
2022/07/11 04:39:34;;;;;;;4.40;1.90;;;17.20;99.90;;;;;;2106365;28;20039;-69
2022/07/11 04:40:35;;;;;;;5.85;2.00;;;17.30;99.90;;;;;;2106914;28;20039;-68
2022/07/11 04:41:36;;;;;;;5.10;1.80;;;17.40;99.90;;;;;;2107016;28;20032;-68
2022/07/11 04:42:37;;;;;;;6.35;2.03;;;17.50;99.90;;;;;;2106621;28;20052;-68
2022/07/11 04:43:38;;;;;;;4.18;1.80;;;17.60;99.90;;;;;;2106840;28;20020;-69
2022/07/11 04:44:38;;;;;;;4.72;2.10;;;18.00;99.90;;;;;;2107663;28;20770;-68
2022/07/11 04:45:39;;;;;;;6.30;2.00;;;18.30;99.90;;;;;;2106254;28;20027;-68
2022/07/11 04:46:40;;;;;;;5.57;1.80;;;18.40;99.90;;;;;;2105477;28;20660;-69
2022/07/11 04:47:41;;;;;;;8.25;1.98;;;18.20;99.90;;;;;;2105757;28;20039;-68
2022/07/11 04:48:42;;;;;;;5.40;1.80;;;18.10;99.90;;;;;;2106402;28;20035;-67
2022/07/11 04:49:46;;;;;;;5.03;1.75;;;18.10;99.90;;;;;;2105797;28;20032;-69
2022/07/11 04:50:47;;;;;;;6.07;2.00;;;18.20;99.90;;;;;;2105754;28;20524;-68
2022/07/11 04:51:47;;;;;;;5.13;1.88;;;18.20;99.90;;;;;;2105901;28;20085;-68
2022/07/11 04:52:48;;;;;;;5.22;1.83;;;18.50;99.90;;;;;;2106756;28;20571;-68
2022/07/11 04:53:49;;;;;;;6.63;1.80;;;19.00;99.90;;;;;;2106948;28;20509;-68
2022/07/11 04:54:49;;;;;;;6.85;1.73;;;19.20;99.90;;;;;;2107706;28;20316;-68
2022/07/11 04:55:50;;;;;;;3.72;1.70;;;19.10;99.90;;;;;;2107913;28;20035;-68
2022/07/11 04:56:51;;;;;;;7.20;1.80;;;19.10;99.90;;;;;;2107935;28;20032;-68
2022/07/11 04:57:52;;;;;;;4.25;1.80;;;19.20;99.90;;;;;;2107842;28;20039;-68
2022/07/11 04:58:53;;;;;;;7.32;2.10;;;19.40;99.90;;;;;;2107203;28;20035;-67
2022/07/11 04:59:53;;;;;;;4.40;1.73;;;19.30;99.90;;;;;;2106337;28;20131;-69
2022/07/11 05:00:57;;;;;;;3.60;1.60;;;19.10;99.90;;;;;;2105399;28;20032;-67
2022/07/11 05:01:57;;;;;;;3.67;1.42;;;19.30;99.90;;;;;;2106983;28;20028;-68
2022/07/11 05:02:58;;;;;;;5.07;1.70;;;19.70;99.90;;;;;;2106922;28;20111;-67
2022/07/11 05:03:59;;;;;;;4.80;1.75;;;19.60;98.70;;;;;;2106896;28;20048;-69
2022/07/11 05:05:00;;;;;;;5.90;2.55;;;19.20;98.90;;;;;;2105305;28;20052;-67
2022/07/11 05:06:00;;;;;;;7.50;2.10;;;19.10;99.60;;;;;;2104905;28;20028;-67
2022/07/11 05:07:01;;;;;;;5.38;1.60;;;18.90;99.90;;;;;;2104410;28;20700;-67
2022/07/11 05:08:03;;;;;;;6.05;1.55;;;18.80;99.90;;;;;;2105160;28;20054;-68
2022/07/11 05:09:07;;;;;;;4.93;1.60;;;19.10;99.90;;;;;;2105206;28;20529;-68
2022/07/11 05:10:08;;;;;;;5.40;1.67;;;19.50;99.70;;;;;;2104314;28;20113;-68
2022/07/11 05:11:09;;;;;;;4.60;1.60;;;19.80;98.30;;;;;;2095907;28;20028;-67
2022/07/11 05:12:10;;;;;;;3.33;1.40;;;20.00;97.90;;;;;;2104549;28;20035;-68
2022/07/11 05:13:10;;;;;;;3.88;2.00;;;20.30;97.10;;;;;;2104965;28;20049;-68
2022/07/11 05:14:11;;;;;;;6.43;1.92;;;20.10;95.60;;;;;;2104807;28;20436;-66
2022/07/11 05:15:12;;;;;;;5.15;1.70;;;20.10;96.10;;;;;;2104585;28;20061;-66
2022/07/11 05:16:12;;;;;;;4.00;1.85;;;20.40;95.20;;;;;;2104216;28;20039;-68
2022/07/11 05:17:13;;;;;;;4.80;1.80;;;20.10;94.80;;;;;;2103944;28;20020;-68
2022/07/11 05:18:14;;;;;;;4.68;1.80;;;19.80;95.90;;;;;;2095545;28;20494;-67
2022/07/11 05:19:15;;;;;;;4.05;1.80;;;19.70;96.10;;;;;;2103938;28;20419;-68
2022/07/11 05:20:15;;;;;;;8.93;1.92;;;19.60;96.40;;;;;;2104627;28;20103;-70